WMKM/MKZ METAR and TAF weather

Enter ICAO airport designator
Station Type Date Time Source
WMKM METAR 2019/12/09 13:00 UTC NOAA

WMKM 091300Z 05005KT 340V090 9999 FEW012 SCT028 25/23 Q1012


Station Type Date Time Source
WMKM Decoded METAR 2019/12/09 13:00 UTC NOAA

Malacca, Malaysia (WMKM) 02-16N 102-15E 9M
Dec 09, 2019 - 08:00 AM EST / 2019.12.09 1300 UTC
Wind: from the NE (050 degrees) at 6 MPH (5 KT) (direction variable):0
Visibility: greater than 7 mile(s):0
Sky conditions: partly cloudy
Temperature: 77 F (25 C)
Dew Point: 73 F (23 C)
Relative Humidity: 88%
Pressure (altimeter): 29.88 in. Hg (1012 hPa)
ob: WMKM 091300Z 05005KT 340V090 9999 FEW012 SCT028 25/23 Q1012
cycle: 13

Station Type Date Time Source
WMKM TAF 2019/12/09 12:00 UTC NOAA

TAF WMKM 091100Z 0912/1012 05006KT 9000 FEW030

Example: see airport list